Have a Safe July 4th! 

Flight Track Log - Related Links

Times and Time Zones

All times are in EST time to prevent confusion due to time zone crossing. See the FLG3861 flight status page for this flight to view local times or setup timezone preferences in your user account.

Time Position Orientation Groundspeed Altitude Reporting Facility
EST Latitude Longitude Course Direction KTS MPH feet Rate Location/Type
Wed 09:49:00 PM 42.2094 -83.3506 179° South 139 160 1,200  Level Cleveland Center
Wed 09:49:36 PM 42.1864 -83.3503 179° South 159 183 2,800 1,852 Climbing Cleveland Center
Wed 09:50:21 PM 42.1561 -83.3361 161° South 180 207 3,700 1,636 Climbing Cleveland Center
Wed 09:50:31 PM 42.1397 -83.3297 164° South 219 252 4,300 1,869 Climbing Cleveland Center
Wed 09:51:22 PM 42.0922 -83.2947 151° Southeast 256 295 5,600 2,203 Climbing Cleveland Center
Wed 09:51:50 PM 42.0781 -83.2339 107° East 325 374 7,200 3,194 Climbing Cleveland Center
Wed 09:52:24 PM 42.0942 -83.1669 72° East 310 357 8,900 2,250 Climbing Cleveland Center
Wed 09:53:26 PM 42.1356 -83.0642 61° Northeast 316 364 10,800 1,805 Climbing Cleveland Center
Wed 09:54:27 PM 42.1811 -82.9456 63° Northeast 355 409 12,600 1,463 Climbing Cleveland Center
Wed 09:55:29 PM 42.2292 -82.8194 63° Northeast 378 435 13,800 1,268 Climbing Cleveland Center
Wed 09:56:30 PM 42.2794 -82.6864 63° Northeast 397 457 15,200 1,317 Climbing Cleveland Center
Wed 09:57:32 PM 42.3306 -82.5517 63° Northeast 404 465 16,500 1,220 Climbing Cleveland Center
Wed 09:58:33 PM 42.3656 -82.4067 72° East 421 484 17,700 1,122 Climbing Cleveland Center
Wed 09:59:35 PM 42.3583 -82.2122 93° East 430 495 18,800 976 Climbing Cleveland Center
Wed 10:00:36 PM 42.3514 -82.0594 93° East 434 499 19,700 927 Climbing Cleveland Center
Wed 10:01:38 PM 42.3444 -81.8919 93° East 442 509 20,700 1,024 Climbing Cleveland Center
Wed 10:02:39 PM 42.3369 -81.7253 93° East 440 506 21,800 1,024 Climbing Cleveland Center
Wed 10:03:41 PM 42.3289 -81.5575 94° East 442 509 22,800 976 Climbing Cleveland Center
Wed 10:04:42 PM 42.3206 -81.3900 94° East 442 509 23,800 976 Climbing Cleveland Center
Wed 10:05:44 PM 42.3131 -81.2225 93° East 441 507 24,800 976 Climbing Cleveland Center
Wed 10:06:45 PM 42.3025 -81.0261 94° East 443 510 25,800 829 Climbing Cleveland Center
Wed 10:07:47 PM 42.2936 -80.8556 94° East 450 518 26,500 585 Climbing Cleveland Center
Wed 10:08:48 PM 42.2847 -80.6844 94° East 451 519 27,000 244 Climbing Cleveland Center
Wed 10:09:50 PM 42.2747 -80.5108 94° East 458 527 27,000  Level Cleveland Center
Wed 10:10:51 PM 42.2647 -80.3294 94° East 475 547 27,000  Level Cleveland Center
Wed 10:11:53 PM 42.2542 -80.1478 94° East 482 555 27,000  Level Cleveland Center
Wed 10:12:54 PM 42.2436 -79.9714 95° East 483 556 27,000  Level Cleveland Center
Wed 10:13:56 PM 42.2319 -79.7922 95° East 482 555 27,000  Level Cleveland Center
Wed 10:14:57 PM 42.2200 -79.6094 95° East 490 564 27,000  Level Cleveland Center
Wed 10:15:59 PM 42.2081 -79.4253 95° East 493 567 27,000  Level Cleveland Center
Wed 10:17:00 PM 42.1933 -79.2047 95° East 494 568 27,000  Level Cleveland Center
Wed 10:18:01 PM 42.1906 -79.0203 91° East 495 570 27,000  Level Cleveland Center
Wed 10:19:03 PM 42.1933 -78.8650 89° East 485 558 27,000  Level Cleveland Center
Wed 10:20:04 PM 42.1972 -78.6483 89° East 482 555 27,000  Level Cleveland Center
Wed 10:21:06 PM 42.2000 -78.4708 89° East 479 551 27,000  Level Cleveland Center
Wed 10:22:07 PM 42.2019 -78.2922 89° East 480 552 27,000  Level Cleveland Center
Wed 10:23:08 PM 42.2036 -78.1158 89° East 477 549 27,000  Level Cleveland Center
Wed 10:24:10 PM 42.2053 -77.9406 89° East 472 543 27,000 -537 Level Cleveland Center
Wed 10:25:11 PM 42.2075 -77.7636 89° East 477 549 25,900 -1,279 Descending Cleveland Center
Wed 10:26:12 PM 42.2083 -77.5858 90° East 479 551 24,400 -1,610 Descending Cleveland Center
Wed 10:27:14 PM 42.2097 -77.3758 89° East 473 544 22,600 -1,610 Descending Cleveland Center
Wed 10:28:15 PM 42.2097 -77.2033 90° East 467 537 21,100 -1,471 Descending Cleveland Center
Wed 10:28:56 PM 42.2111 -77.0953 89° East 473 544 20,100 -1,782 Descending New York Center
Wed 10:29:56 PM 42.2089 -76.9383 91° East 446 513 18,100 -1,850 Descending New York Center
Wed 10:30:56 PM 42.1814 -76.7847 104° East 426 490 16,400 -2,000 Descending New York Center
Wed 10:31:56 PM 42.1789 -76.6250 91° East 401 461 14,100 -2,150 Descending New York Center
Wed 10:32:56 PM 42.1958 -76.4894 80° East 382 440 12,100 -2,200 Descending New York Center
Wed 10:33:56 PM 42.2139 -76.3733 78° East 350 403 9,700 -2,750 Descending New York Center
Wed 10:34:56 PM 42.2336 -76.2603 77° East 325 374 6,600 -2,650 Descending New York Center
Wed 10:35:56 PM 42.2489 -76.1550 79° East 301 346 4,400 -1,800 Descending New York Center
Wed 10:36:56 PM 42.2678 -76.0586 75° East 278 320 3,000 -850 Descending New York Center
Wed 10:37:56 PM 42.2492 -76.0094 117° Southeast 169 194 2,700 -350 Descending New York Center
Wed 10:38:56 PM 42.2386 -75.9636 107° East 154 177 2,300 -400 Descending New York Center

Login

Don't have an account? Register now (free) for customized features, flight alerts, and more!